Time;durP1;ratioP1;P1;durP2;ratioP2;P2;SDS_P1;SDS_P2;PMS_P1;PMS_P2;Temp;Humidity;BMP_temperature;BMP_pressure;BME280_temperature;BME280_humidity;BME280_pressure;Samples;Min_cycle;Max_cycle;Signal;HPM_P1;HPM_P2
2022/07/04 00:02:16;;;;;;;10.05;2.40;;;;;;;15.53;81.70;101934.31;4990852;28;20120;-26
2022/07/04 00:04:42;;;;;;;12.13;2.22;;;;;;;15.50;82.24;101932.00;4990965;28;20039;-27
2022/07/04 00:07:07;;;;;;;8.88;2.13;;;;;;;15.49;82.04;101928.44;4991491;28;20121;-26
2022/07/04 00:09:32;;;;;;;8.45;1.98;;;;;;;15.48;82.11;101932.19;4989501;28;20054;-26
2022/07/04 00:11:58;;;;;;;9.90;3.30;;;;;;;15.45;81.78;101934.44;4991248;28;20498;-26
2022/07/04 00:14:23;;;;;;;13.10;2.50;;;;;;;15.45;82.55;101929.84;4989685;28;20170;-27
2022/07/04 00:16:48;;;;;;;8.18;2.40;;;;;;;15.45;82.62;101927.13;4989840;28;20101;-27
2022/07/04 00:19:14;;;;;;;10.13;1.85;;;;;;;15.47;82.38;101919.66;4973924;28;20029;-28
2022/07/04 00:21:39;;;;;;;6.28;1.80;;;;;;;15.45;82.21;101918.97;4990613;28;20077;-27
2022/07/04 00:24:05;;;;;;;6.50;1.85;;;;;;;15.43;82.43;101923.78;4990868;28;20031;-28
2022/07/04 00:26:30;;;;;;;9.88;2.38;;;;;;;15.42;82.54;101922.06;4991141;28;20030;-26
2022/07/04 00:28:55;;;;;;;7.65;1.88;;;;;;;15.39;82.60;101917.03;4991063;28;20023;-27
2022/07/04 00:31:21;;;;;;;10.90;2.80;;;;;;;15.33;82.52;101913.19;4991443;28;20096;-26
2022/07/04 00:33:46;;;;;;;10.57;2.10;;;;;;;15.27;83.05;101913.97;4991320;28;20054;-26
2022/07/04 00:36:11;;;;;;;9.90;2.17;;;;;;;15.23;83.57;101912.63;4991148;28;20105;-27
2022/07/04 00:38:37;;;;;;;9.90;2.20;;;;;;;15.20;83.69;101912.19;4991234;28;20118;-27
2022/07/04 00:41:02;;;;;;;10.00;2.15;;;;;;;15.21;83.96;101911.13;4990669;28;20546;-28
2022/07/04 00:43:28;;;;;;;12.00;2.22;;;;;;;15.21;84.28;101913.84;4991051;28;20034;-26
2022/07/04 00:45:53;;;;;;;8.02;2.13;;;;;;;15.21;84.46;101913.84;4989672;28;20434;-26
2022/07/04 00:48:19;;;;;;;11.52;2.20;;;;;;;15.24;84.78;101910.75;4989830;28;20070;-26
2022/07/04 00:50:46;;;;;;;10.85;2.40;;;;;;;15.22;84.64;101904.69;4989413;28;20489;-26
2022/07/04 00:53:15;;;;;;;9.73;2.38;;;;;;;15.23;84.92;101906.38;4990828;28;20030;-27
2022/07/04 00:55:41;;;;;;;7.22;2.17;;;;;;;15.23;84.74;101911.81;4989566;28;20224;-26
2022/07/04 00:58:07;;;;;;;5.85;2.00;;;;;;;15.23;84.70;101911.81;4990537;28;20197;-26
2022/07/04 01:00:33;;;;;;;7.40;1.98;;;;;;;15.20;84.62;101909.47;4990606;28;20058;-26
2022/07/04 01:02:58;;;;;;;10.07;1.98;;;;;;;15.18;84.95;101895.25;4990557;28;20441;-27
2022/07/04 01:05:23;;;;;;;10.80;2.58;;;;;;;15.17;84.95;101902.53;4989144;28;20034;-26
2022/07/04 01:07:49;;;;;;;14.60;2.45;;;;;;;15.16;85.30;101900.84;4989489;28;20046;-26
2022/07/04 01:10:15;;;;;;;9.23;2.03;;;;;;;15.10;85.04;101899.72;4988746;28;20425;-27
2022/07/04 01:12:40;;;;;;;6.03;1.92;;;;;;;15.08;85.62;101888.22;4973241;28;20026;-26
2022/07/04 01:15:06;;;;;;;11.10;2.08;;;;;;;15.07;86.16;101889.25;4990550;28;20370;-27
2022/07/04 01:17:32;;;;;;;15.20;3.13;;;;;;;15.06;86.36;101889.44;4990068;28;20108;-27
2022/07/04 01:19:57;;;;;;;8.73;2.05;;;;;;;15.06;86.80;101887.59;4988908;28;20450;-26
2022/07/04 01:22:23;;;;;;;13.35;2.67;;;;;;;15.08;86.83;101893.63;4990255;28;20042;-26
2022/07/04 01:24:49;;;;;;;6.70;2.45;;;;;;;15.10;87.24;101883.44;4989175;28;20355;-26
2022/07/04 01:27:15;;;;;;;14.07;2.33;;;;;;;15.12;87.34;101889.53;4988701;28;20038;-27
2022/07/04 01:29:40;;;;;;;12.00;2.58;;;;;;;15.11;87.95;101882.44;4989724;28;20026;-26
2022/07/04 01:32:08;;;;;;;6.57;2.15;;;;;;;15.11;88.04;101885.16;4991402;28;20224;-27
2022/07/04 01:34:33;;;;;;;14.07;2.95;;;;;;;15.10;87.92;101878.03;4994477;28;20069;-27
2022/07/04 01:36:59;;;;;;;17.92;3.20;;;;;;;15.10;88.01;101886.16;4995960;28;20441;-27
2022/07/04 01:39:25;;;;;;;8.73;2.30;;;;;;;15.10;88.33;101886.16;4995266;28;20037;-29
2022/07/04 01:41:51;;;;;;;9.73;2.50;;;;;;;15.09;88.35;101878.25;4994392;28;20033;-27
2022/07/04 01:44:16;;;;;;;12.70;3.00;;;;;;;15.09;88.64;101879.06;4993458;28;20117;-28
2022/07/04 01:46:42;;;;;;;11.20;2.78;;;;;;;15.09;88.83;101878.25;4993851;28;20102;-27
2022/07/04 01:49:08;;;;;;;6.45;2.30;;;;;;;15.07;88.61;101875.69;4975786;28;20030;-27
2022/07/04 01:51:34;;;;;;;10.13;3.13;;;;;;;15.06;88.51;101884.00;4975030;28;20030;-27
2022/07/04 01:53:59;;;;;;;8.45;2.40;;;;;;;15.03;88.72;101884.38;4974642;28;20031;-28
2022/07/04 01:56:24;;;;;;;7.80;2.28;;;;;;;15.02;88.77;101880.84;4987389;28;20065;-26
2022/07/04 01:58:51;;;;;;;7.95;2.40;;;;;;;15.00;88.85;101880.16;4992826;28;20034;-28
2022/07/04 02:01:32;;;;;;;15.15;2.88;;;;;;;15.02;89.29;101878.13;4993756;28;20545;-28
2022/07/04 02:03:58;;;;;;;12.75;2.63;;;;;;;15.00;89.48;101880.16;4994147;28;20100;-26
2022/07/04 02:06:24;;;;;;;11.18;2.60;;;;;;;14.98;89.79;101871.41;4993610;28;20459;-28
2022/07/04 02:14:18;;;;;;;16.80;3.40;;;;;;;15.02;90.53;101878.13;4993691;28;20034;-27
2022/07/04 02:16:43;;;;;;;9.75;2.40;;;;;;;15.01;90.20;101881.00;4993342;28;20389;-27
2022/07/04 02:19:08;;;;;;;12.00;2.70;;;;;;;15.00;90.21;101884.75;4992419;28;20084;-28
2022/07/04 02:21:34;;;;;;;12.43;2.45;;;;;;;15.00;90.36;101882.88;4993594;28;20358;-26
2022/07/04 02:23:59;;;;;;;14.95;3.13;;;;;;;14.97;89.85;101883.25;4993117;28;20022;-27
2022/07/04 02:26:24;;;;;;;11.65;2.92;;;;;;;14.99;89.81;101883.91;4992750;28;20038;-26
2022/07/04 02:28:51;;;;;;;9.88;2.65;;;;;;;14.97;90.19;101880.56;4993688;28;20029;-27
2022/07/04 02:31:17;;;;;;;12.25;2.85;;;;;;;14.96;90.46;101883.47;4991791;28;20390;-28
2022/07/04 02:33:42;;;;;;;14.45;3.22;;;;;;;14.96;90.81;101876.16;5016349;23;20047;-27
2022/07/04 02:36:07;;;;;;;18.58;3.03;;;;;;;14.93;90.89;101873.84;4973158;28;20029;-29
2022/07/04 02:38:33;;;;;;;14.52;2.83;;;;;;;14.93;90.99;101874.66;4975232;28;20084;-28
2022/07/04 02:40:58;;;;;;;15.40;2.70;;;;;;;14.91;91.18;101871.28;4975404;28;20043;-27
2022/07/04 02:43:23;;;;;;;11.38;3.00;;;;;;;14.93;91.48;101881.97;4971551;28;20097;-27
2022/07/04 02:45:49;;;;;;;15.63;3.20;;;;;;;14.94;91.39;101875.50;4973037;28;20031;-27
2022/07/04 02:48:14;;;;;;;10.65;2.78;;;;;;;14.92;91.19;101869.41;4973745;28;20038;-28
2022/07/04 02:50:39;;;;;;;15.75;2.78;;;;;;;14.91;90.92;101865.03;4974357;28;20031;-28
2022/07/04 02:53:05;;;;;;;10.45;3.03;;;;;;;14.89;91.53;101877.94;4974150;28;20033;-28
2022/07/04 02:55:30;;;;;;;10.73;3.03;;;;;;;14.87;91.64;101877.25;4974110;28;20131;-28
2022/07/04 02:57:55;;;;;;;11.20;2.80;;;;;;;14.87;91.99;101877.25;4973708;28;20034;-28
2022/07/04 03:00:21;;;;;;;11.70;2.95;;;;;;;14.89;92.33;101888.78;4973471;28;20042;-29
2022/07/04 03:02:46;;;;;;;17.98;2.90;;;;;;;14.91;92.16;101884.00;4974174;28;20031;-29
2022/07/04 03:05:11;;;;;;;17.55;2.80;;;;;;;14.93;91.97;101885.50;4974238;28;20031;-29
2022/07/04 03:07:37;;;;;;;13.55;3.15;;;;;;;14.96;92.05;101889.72;4973374;28;20042;-28
2022/07/04 03:10:02;;;;;;;13.50;2.85;;;;;;;15.00;92.38;101891.00;4973135;28;20057;-28
2022/07/04 03:12:27;;;;;;;15.82;3.13;;;;;;;15.01;92.41;101887.28;4973438;28;20081;-29
2022/07/04 03:14:53;;;;;;;8.77;2.53;;;;;;;15.00;92.40;101885.59;4973756;28;20041;-27
2022/07/04 03:17:19;;;;;;;19.55;3.42;;;;;;;15.00;92.47;101884.75;4973434;28;20061;-29
2022/07/04 03:19:44;;;;;;;18.13;3.40;;;;;;;14.98;92.69;101879.53;4973047;28;20027;-29
2022/07/04 03:22:10;;;;;;;14.85;3.53;;;;;;;14.94;92.81;101886.34;4973147;28;20049;-28
2022/07/04 03:24:35;;;;;;;10.85;2.83;;;;;;;14.95;93.19;101882.59;4972861;28;20074;-28
2022/07/04 03:27:00;;;;;;;15.15;3.00;;;;;;;14.93;93.56;101880.09;4973617;28;20026;-28
2022/07/04 03:29:26;;;;;;;13.35;3.08;;;;;;;14.95;93.25;101887.19;4973139;28;20494;-28
2022/07/04 03:31:51;;;;;;;18.52;2.95;;;;;;;14.94;93.07;101891.75;4973304;28;20405;-27
2022/07/04 03:34:17;;;;;;;12.98;2.90;;;;;;;14.96;92.97;101888.88;4972597;28;20050;-28
2022/07/04 03:36:42;;;;;;;10.20;2.92;;;;;;;14.95;92.93;101888.03;4955565;28;20038;-28
2022/07/04 03:39:07;;;;;;;11.05;2.53;;;;;;;14.95;92.58;101887.19;4972857;28;20106;-28
2022/07/04 03:41:33;;;;;;;12.45;3.15;;;;;;;14.96;92.64;101889.72;4971760;28;20031;-28
2022/07/04 03:43:58;;;;;;;22.42;3.58;;;;;;;14.93;92.32;101895.53;4972730;28;20035;-28
2022/07/04 03:46:23;;;;;;;16.92;3.58;;;;;;;14.92;92.68;101889.22;4972425;28;20097;-28
2022/07/04 03:48:49;;;;;;;22.67;4.30;;;;;;;14.94;92.91;101891.75;4971828;28;20045;-28
2022/07/04 03:51:15;;;;;;;9.65;3.30;;;;;;;14.96;93.03;101888.88;4972577;28;20486;-28
2022/07/04 03:53:41;;;;;;;15.73;3.17;;;;;;;14.97;93.27;101896.81;4972925;28;20367;-28
2022/07/04 03:56:08;;;;;;;12.60;3.50;;;;;;;14.97;93.47;101899.53;4972583;28;20035;-28
2022/07/04 03:58:33;;;;;;;9.15;2.97;;;;;;;14.98;93.57;101898.53;4970741;28;20026;-28
2022/07/04 04:00:59;;;;;;;9.40;2.90;;;;;;;14.99;93.55;101892.06;4972256;28;20035;-27
2022/07/04 04:06:08;;;;;;;23.80;4.10;;;;;;;15.01;93.53;101900.84;4972701;28;20138;-28
2022/07/04 04:08:34;;;;;;;17.52;3.50;;;;;;;14.99;93.48;101902.91;4972277;28;20097;-28
2022/07/04 04:10:59;;;;;;;11.48;2.90;;;;;;;14.94;93.48;101902.63;4970692;28;20050;-28
2022/07/04 04:13:24;;;;;;;16.00;3.50;;;;;;;14.91;93.61;101908.41;4969563;28;20030;-27
2022/07/04 04:15:49;;;;;;;16.10;3.13;;;;;;;14.90;94.05;101906.69;4964589;28;20082;-28
2022/07/04 04:18:15;;;;;;;13.65;3.45;;;;;;;14.89;94.45;101899.63;4971224;28;20027;-27
2022/07/04 04:20:40;;;;;;;14.35;3.55;;;;;;;14.92;94.76;101907.38;4970538;28;20090;-26
2022/07/04 04:23:06;;;;;;;13.73;3.40;;;;;;;14.96;94.72;101916.00;4971707;28;20046;-27
2022/07/04 04:25:32;;;;;;;10.95;3.55;;;;;;;15.01;94.94;101918.97;4969506;28;20038;-27
2022/07/04 04:27:57;;;;;;;18.30;3.70;;;;;;;15.01;94.90;101908.13;4969896;28;20034;-28
2022/07/04 04:30:22;;;;;;;17.27;4.70;;;;;;;15.07;95.17;101910.94;4967540;28;20534;-28
2022/07/04 04:32:47;;;;;;;18.95;3.78;;;;;;;15.11;94.97;101914.97;4969515;28;20323;-30
2022/07/04 04:35:13;;;;;;;15.82;4.05;;;;;;;15.20;94.87;101910.31;4969243;28;20772;-29
2022/07/04 04:37:38;;;;;;;17.10;3.70;;;;;;;15.28;94.64;101917.50;4969192;28;20471;-30
2022/07/04 04:40:04;;;;;;;14.10;4.38;;;;;;;15.36;93.91;101929.09;4969485;28;20030;-28
2022/07/04 04:42:30;;;;;;;15.13;4.10;;;;;;;15.48;93.59;101921.34;4970124;28;20085;-28
2022/07/04 04:44:55;;;;;;;18.77;3.95;;;;;;;15.66;93.28;101929.06;4971059;28;20117;-28
2022/07/04 04:47:20;;;;;;;19.00;4.05;;;;;;;15.83;92.82;101932.47;4966613;28;20114;-29
2022/07/04 04:49:47;;;;;;;18.95;3.67;;;;;;;15.96;92.04;101943.47;4971590;28;20022;-29
2022/07/04 04:52:12;;;;;;;13.60;3.60;;;;;;;16.06;90.65;101945.03;4985803;28;20110;-29
2022/07/04 04:54:37;;;;;;;13.07;3.33;;;;;;;16.13;89.55;101957.66;4971283;28;20118;-27
2022/07/04 04:57:03;;;;;;;11.10;3.15;;;;;;;16.14;87.26;101950.34;4967325;28;20027;-28
2022/07/04 04:59:29;;;;;;;7.57;3.00;;;;;;;16.19;86.17;101956.91;4966496;28;20146;-28
2022/07/04 05:01:56;;;;;;;13.55;2.85;;;;;;;16.23;85.15;101960.91;4969626;28;20081;-28
2022/07/04 05:04:21;;;;;;;8.68;2.53;;;;;;;16.33;83.87;101955.19;4971435;28;20042;-28
2022/07/04 05:06:47;;;;;;;8.07;2.70;;;;;;;16.39;83.83;101951.69;4971730;28;20034;-27
2022/07/04 05:09:12;;;;;;;9.00;2.05;;;;;;;16.48;83.61;101962.41;4969516;28;20031;-27
2022/07/04 05:11:37;;;;;;;9.10;2.40;;;;;;;16.72;83.09;101956.59;4952180;28;20118;-27
2022/07/04 05:14:03;;;;;;;7.05;2.05;;;;;;;16.85;81.57;101956.75;4962771;28;20475;-29
2022/07/04 05:16:28;;;;;;;5.25;2.33;;;;;;;17.11;81.58;101957.97;4971508;28;20501;-27
2022/07/04 05:18:54;;;;;;;7.15;1.90;;;;;;;17.25;80.17;101957.06;4971645;28;20039;-29
2022/07/04 05:21:19;;;;;;;4.97;2.20;;;;;;;17.41;79.67;101963.22;4971549;28;20054;-29
2022/07/04 05:23:45;;;;;;;6.85;1.88;;;;;;;17.42;77.86;101962.16;4971540;28;20062;-29
2022/07/04 05:26:10;;;;;;;4.22;1.70;;;;;;;17.52;77.79;101959.94;4971413;28;20034;-29
2022/07/04 05:28:35;;;;;;;5.88;2.15;;;;;;;17.55;76.91;101963.09;4971501;28;20034;-30
2022/07/04 05:31:01;;;;;;;6.35;2.00;;;;;;;17.56;75.24;101963.91;4972005;28;20042;-29
2022/07/04 05:33:26;;;;;;;8.35;2.20;;;;;;;17.60;75.08;101970.66;4954559;28;20093;-29
2022/07/04 05:35:51;;;;;;;5.03;2.20;;;;;;;17.69;74.90;101969.47;4952863;29;20082;-28
2022/07/04 05:38:18;;;;;;;5.97;2.35;;;;;;;17.70;74.22;101968.41;4969761;28;20030;-29
2022/07/04 05:40:43;;;;;;;3.85;2.17;;;;;;;17.69;74.58;101964.00;4971699;28;20058;-27
2022/07/04 05:43:10;;;;;;;8.35;2.03;;;;;;;17.73;74.83;101962.56;4971783;28;20042;-28
2022/07/04 05:45:35;;;;;;;4.38;2.00;;;;;;;17.76;74.96;101964.88;4970242;28;20038;-28
2022/07/04 05:48:01;;;;;;;6.45;1.98;;;;;;;17.82;74.34;101960.53;4971216;28;20142;-28
2022/07/04 05:50:26;;;;;;;10.82;2.38;;;;;;;17.85;73.22;101959.28;4970332;28;20477;-28
2022/07/04 05:52:51;;;;;;;7.60;1.98;;;;;;;17.75;72.23;101967.81;4970501;28;20106;-29
2022/07/04 05:55:16;;;;;;;8.82;2.10;;;;;;;17.81;72.81;101958.84;4970245;28;20039;-29
2022/07/04 05:57:42;;;;;;;5.38;1.83;;;;;;;17.95;72.36;101951.56;4971364;28;20038;-28
2022/07/04 06:00:08;;;;;;;10.07;2.00;;;;;;;17.96;70.67;101953.28;4970430;28;20050;-28
2022/07/04 06:02:33;;;;;;;8.20;2.13;;;;;;;17.93;70.48;101950.94;4971621;28;20026;-29
2022/07/04 06:04:58;;;;;;;4.65;2.05;;;;;;;18.03;70.67;101954.09;4971419;28;20204;-29
2022/07/04 06:07:24;;;;;;;5.07;1.77;;;;;;;18.15;70.25;101951.66;4970083;28;20061;-28
2022/07/04 06:09:49;;;;;;;3.70;1.75;;;;;;;18.25;69.18;101956.72;4968927;28;20371;-29
2022/07/04 06:12:14;;;;;;;3.17;1.60;;;;;;;18.37;68.35;101950.44;4971458;28;20327;-29
2022/07/04 06:14:40;;;;;;;4.32;2.13;;;;;;;18.52;68.97;101944.81;4971452;28;20035;-30
2022/07/04 06:17:05;;;;;;;6.15;2.10;;;;;;;18.60;68.22;101944.59;4970997;28;20335;-28
2022/07/04 06:19:31;;;;;;;7.80;2.13;;;;;;;18.74;67.91;101937.25;4972059;28;20100;-29
2022/07/04 06:21:56;;;;;;;3.60;1.60;;;;;;;18.80;64.76;101941.06;4975166;28;20039;-28
2022/07/04 06:24:21;;;;;;;3.22;1.70;;;;;;;18.92;63.95;101936.66;4974917;28;20045;-29
2022/07/04 06:26:47;;;;;;;6.07;2.08;;;;;;;19.19;63.45;101922.97;4974305;28;20030;-30
2022/07/04 06:29:12;;;;;;;7.60;1.88;;;;;;;19.63;63.29;101944.06;4974676;28;20145;-28
2022/07/04 06:31:38;;;;;;;4.32;1.60;;;;;;;20.01;61.59;101937.00;4974927;28;20034;-29
2022/07/04 06:36:47;;;;;;;9.80;1.48;;;;;;;20.87;59.51;101943.81;4973172;28;20132;-28
2022/07/04 06:39:12;;;;;;;5.20;1.65;;;;;;;21.18;58.64;101951.94;4973626;28;20174;-29
2022/07/04 06:41:38;;;;;;;4.55;1.48;;;;;;;21.38;57.32;101959.16;4974048;28;20050;-29
2022/07/04 06:44:04;;;;;;;1.65;1.20;;;;;;;21.40;56.39;101959.75;4944055;28;20535;-27
2022/07/04 06:46:29;;;;;;;6.20;1.83;;;;;;;21.40;56.69;101960.59;4958438;28;20034;-27
2022/07/04 06:48:54;;;;;;;3.10;1.50;;;;;;;21.29;56.85;101961.31;4960973;28;20425;-29
2022/07/04 06:51:20;;;;;;;3.78;1.58;;;;;;;21.21;57.81;101959.72;4960748;28;20464;-27
2022/07/04 06:53:45;;;;;;;3.47;1.52;;;;;;;21.17;57.62;101955.75;4959420;28;20878;-28
2022/07/04 06:56:11;;;;;;;11.23;1.88;;;;;;;21.25;59.44;101966.41;4962847;28;20128;-29
2022/07/04 06:58:36;;;;;;;5.78;1.75;;;;;;;21.36;58.11;101953.88;4962529;28;20033;-27
2022/07/04 07:01:02;;;;;;;5.53;1.73;;;;;;;21.55;58.38;101962.97;4958138;28;20038;-28
2022/07/04 07:03:28;;;;;;;3.72;1.52;;;;;;;21.83;56.43;101958.88;4958658;28;20034;-29
2022/07/04 07:05:53;;;;;;;4.10;1.70;;;;;;;22.10;54.82;101953.88;4960048;28;20078;-29
2022/07/04 07:08:19;;;;;;;8.68;1.98;;;;;;;22.57;53.88;101954.06;4961108;28;20077;-28
2022/07/04 07:10:44;;;;;;;3.53;1.40;;;;;;;23.16;53.11;101957.72;4957390;28;20471;-29
2022/07/04 07:13:10;;;;;;;5.22;1.55;;;;;;;24.37;49.97;101959.69;4959896;28;20023;-29
2022/07/04 07:15:35;;;;;;;2.03;1.50;;;;;;;25.32;46.12;101962.69;4960265;28;20030;-29
2022/07/04 07:18:02;;;;;;;6.22;1.60;;;;;;;26.28;44.33;101965.00;4960420;28;20105;-30
2022/07/04 07:20:28;;;;;;;3.95;1.40;;;;;;;26.20;42.07;101962.72;4962809;28;20423;-29
2022/07/04 07:22:53;;;;;;;2.25;1.30;;;;;;;26.52;41.72;101964.72;4956747;28;20089;-29
2022/07/04 07:25:18;;;;;;;3.40;1.30;;;;;;;26.97;40.57;101958.72;4960804;28;20030;-29
2022/07/04 07:27:44;;;;;;;3.17;1.52;;;;;;;27.62;40.92;101958.56;4958155;28;20107;-29
2022/07/04 07:30:09;;;;;;;6.60;1.63;;;;;;;27.90;38.43;101958.16;4956288;28;20490;-29
2022/07/04 07:32:35;;;;;;;6.75;1.52;;;;;;;27.84;39.17;101969.50;4956939;28;20617;-29
2022/07/04 07:35:00;;;;;;;5.88;1.48;;;;;;;27.48;37.26;101961.00;4958125;28;20082;-29
2022/07/04 07:37:26;;;;;;;2.60;1.30;;;;;;;27.17;39.44;101963.56;4959248;28;20039;-30
2022/07/04 07:39:53;;;;;;;3.90;1.60;;;;;;;27.07;38.92;101966.25;4962843;28;20043;-30
2022/07/04 07:42:18;;;;;;;4.18;1.55;;;;;;;27.35;39.63;101968.66;4964356;28;20042;-29
2022/07/04 07:44:46;;;;;;;5.68;1.58;;;;;;;27.59;38.67;101973.78;4961146;28;20034;-30
2022/07/04 07:47:12;;;;;;;6.90;1.52;;;;;;;26.62;39.13;101970.31;4965170;28;20035;-28
2022/07/04 07:49:37;;;;;;;3.90;1.60;;;;;;;26.52;40.02;101984.03;4961260;28;20126;-28
2022/07/04 07:52:03;;;;;;;5.38;1.67;;;;;;;25.70;41.55;101980.28;4960130;28;20118;-29
2022/07/04 07:54:28;;;;;;;6.82;1.92;;;;;;;25.37;42.97;101977.34;4963864;28;20063;-29
2022/07/04 07:56:54;;;;;;;5.97;1.67;;;;;;;25.16;44.27;101987.25;4965390;28;20034;-30
2022/07/04 07:59:19;;;;;;;2.55;1.52;;;;;;;24.84;44.34;101997.16;4961609;28;20038;-29
2022/07/04 08:01:44;;;;;;;4.22;1.83;;;;;;;24.16;45.19;101988.75;4956198;28;20090;-29
2022/07/04 08:06:54;;;;;;;8.65;2.28;;;;;;;22.83;48.48;101996.72;4960555;28;20496;-30
2022/07/04 08:09:19;;;;;;;8.82;1.80;;;;;;;22.50;49.43;101998.03;4957283;28;20043;-29
2022/07/04 08:11:44;;;;;;;5.13;1.30;;;;;;;22.47;48.55;102001.25;4958670;28;20166;-29
2022/07/04 08:14:10;;;;;;;6.78;1.65;;;;;;;22.73;49.05;102001.94;4960197;28;20050;-29
2022/07/04 08:16:35;;;;;;;1.88;1.23;;;;;;;22.54;48.35;102012.97;4958702;28;20034;-29
2022/07/04 08:19:02;;;;;;;3.25;1.38;;;;;;;22.64;51.25;102008.81;4963533;28;20394;-30
2022/07/04 08:21:27;;;;;;;5.78;1.85;;;;;;;22.69;49.50;102017.19;4958852;28;20089;-29
2022/07/04 08:23:53;;;;;;;4.15;1.40;;;;;;;22.31;49.88;102021.94;4959093;28;20035;-29
2022/07/04 08:26:18;;;;;;;3.88;1.15;;;;;;;22.16;49.14;102035.19;4961826;28;20129;-28
2022/07/04 08:28:43;;;;;;;4.25;1.70;;;;;;;22.05;49.09;102034.06;4956940;28;20119;-28
2022/07/04 08:31:09;;;;;;;2.78;1.73;;;;;;;21.92;49.66;102034.22;4962557;28;20030;-28
2022/07/04 08:33:34;;;;;;;2.63;1.30;;;;;;;21.82;50.69;102033.91;4955766;28;20074;-28
2022/07/04 08:35:59;;;;;;;5.32;1.48;;;;;;;21.62;50.54;102026.75;4958068;28;20043;-28
2022/07/04 08:38:25;;;;;;;6.30;1.42;;;;;;;21.65;50.28;102026.28;4960271;28;20062;-28
2022/07/04 08:40:57;;;;;;;6.57;1.48;;;;;;;21.61;51.38;102032.44;4959874;28;20035;-27
2022/07/04 08:43:24;;;;;;;5.85;2.22;;;;;;;21.90;48.86;102028.94;4958880;28;20060;-29
2022/07/04 08:45:53;;;;;;;2.90;1.50;;;;;;;22.28;48.75;102032.56;4961480;28;20062;-28
2022/07/04 08:48:25;;;;;;;4.07;1.50;;;;;;;22.73;47.45;102024.72;4961858;28;20509;-28
2022/07/04 08:50:57;;;;;;;5.10;1.40;;;;;;;22.65;49.05;102032.47;4955198;28;20508;-28
2022/07/04 08:53:26;;;;;;;5.72;1.40;;;;;;;22.52;47.23;102026.09;4956938;28;20097;-29
2022/07/04 08:58:37;;;;;;;3.75;1.60;;;;;;;23.76;45.55;102027.25;4956502;28;20166;-29
2022/07/04 09:01:14;;;;;;;3.25;1.35;;;;;;;24.77;43.93;102040.53;4953861;28;21156;-28
2022/07/04 09:03:40;;;;;;;5.82;1.50;;;;;;;25.11;44.35;102046.91;4960513;28;20113;-30
2022/07/04 09:06:05;;;;;;;4.68;1.67;;;;;;;24.97;43.85;102041.72;4955901;28;20106;-28
2022/07/04 09:08:31;;;;;;;7.03;1.88;;;;;;;25.03;43.30;102041.81;4959744;28;20030;-29
2022/07/04 09:10:56;;;;;;;2.92;1.77;;;;;;;25.03;42.55;102053.66;4957065;28;20025;-29
2022/07/04 09:13:21;;;;;;;7.72;1.60;;;;;;;25.59;40.70;102046.31;4960312;28;20579;-29
2022/07/04 09:15:51;;;;;;;4.72;1.50;;;;;;;26.28;40.82;102053.31;4965316;28;20118;-30
2022/07/04 09:18:26;;;;;;;4.57;1.45;;;;;;;27.18;36.83;102050.94;4968727;28;20403;-29
2022/07/04 09:20:53;;;;;;;2.47;2.28;;;;;;;27.87;35.11;102046.41;4972433;28;20031;-29
2022/07/04 09:23:23;;;;;;;6.00;1.65;;;;;;;27.41;36.23;102052.50;4965176;28;20106;-29
2022/07/04 09:26:06;;;;;;;4.55;1.58;;;;;;;27.09;35.94;102049.72;4972582;28;20046;-28
2022/07/04 09:28:31;;;;;;;3.35;1.10;;;;;;;27.21;35.53;102050.41;4961046;28;20062;-29
2022/07/04 09:30:58;;;;;;;2.50;1.33;;;;;;;27.08;36.88;102050.81;4972143;28;20061;-28
2022/07/04 09:33:43;;;;;;;8.77;1.33;;;;;;;26.90;37.19;102061.16;4955277;28;20117;-29
2022/07/04 09:36:13;;;;;;;8.32;1.50;;;;;;;26.67;37.68;102051.28;4954770;28;20038;-29
2022/07/04 09:38:38;;;;;;;8.57;1.30;;;;;;;26.35;38.19;102053.09;4971272;28;20138;-28
2022/07/04 09:41:46;;;;;;;4.47;1.65;;;;;;;26.65;38.48;102058.16;4971618;28;20855;-30
2022/07/04 09:44:04;;;;;;;3.33;1.10;;;;;;;27.57;35.79;102043.19;4964602;28;20046;-28
2022/07/04 09:46:29;;;;;;;5.28;1.48;;;;;;;28.11;35.53;102055.91;4972591;28;20086;-28
2022/07/04 09:48:55;;;;;;;1.65;1.15;;;;;;;28.51;34.50;102050.81;4972014;28;20118;-30
2022/07/04 09:51:38;;;;;;;3.97;1.35;;;;;;;28.59;34.31;102042.78;4972381;28;20119;-29
2022/07/04 09:54:14;;;;;;;5.85;1.45;;;;;;;28.07;32.42;102034.59;4972312;28;20031;-28
2022/07/04 09:56:43;;;;;;;3.55;1.30;;;;;;;27.97;34.14;102040.94;4975710;28;20034;-29
2022/07/04 09:59:09;;;;;;;5.07;1.55;;;;;;;28.26;34.36;102043.25;4967388;28;20019;-28
2022/07/04 10:01:35;;;;;;;5.35;1.27;;;;;;;27.60;35.36;102036.28;4964004;28;20046;-29
2022/07/04 10:04:03;;;;;;;5.83;1.10;;;;;;;28.15;35.34;102040.44;4956210;28;20396;-29
2022/07/04 10:06:32;;;;;;;3.58;1.50;;;;;;;28.40;34.20;102039.69;4955145;29;20318;-29
2022/07/04 10:09:06;;;;;;;5.03;1.52;;;;;;;28.67;34.33;102039.50;4956482;28;20102;-28
2022/07/04 10:11:33;;;;;;;9.57;1.83;;;;;;;28.44;34.07;102034.47;4956613;28;20047;-28
2022/07/04 10:13:59;;;;;;;3.05;1.17;;;;;;;28.72;34.87;102043.38;4954887;28;20024;-31
2022/07/04 10:16:25;;;;;;;4.78;1.08;;;;;;;28.90;33.88;102042.84;4967039;28;20027;-29
2022/07/04 10:18:50;;;;;;;5.57;1.63;;;;;;;29.03;33.27;102039.50;4975856;28;20027;-29
2022/07/04 10:21:16;;;;;;;5.82;1.60;;;;;;;29.20;32.57;102041.19;4958268;28;20164;-30
2022/07/04 10:23:41;;;;;;;3.65;1.50;;;;;;;29.57;32.78;102048.34;4974412;28;20536;-27
2022/07/04 10:26:07;;;;;;;2.60;1.40;;;;;;;29.88;31.99;102052.72;4975109;28;20034;-29
2022/07/04 10:28:33;;;;;;;4.00;1.35;;;;;;;29.62;32.77;102056.66;4968676;28;20030;-29
2022/07/04 10:30:59;;;;;;;4.65;1.30;;;;;;;28.35;33.72;102047.16;4955103;29;20027;-29
2022/07/04 10:33:27;;;;;;;3.53;1.30;;;;;;;28.19;34.03;102041.56;4955957;28;20447;-29
2022/07/04 10:36:03;;;;;;;3.40;1.10;;;;;;;28.45;34.04;102041.66;4938542;29;20031;-29
2022/07/04 10:38:46;;;;;;;4.43;1.08;;;;;;;28.58;34.12;102046.69;4956460;28;20049;-30
2022/07/04 10:41:11;;;;;;;6.30;1.23;;;;;;;28.93;33.02;102044.22;4955620;28;20062;-30
2022/07/04 10:43:50;;;;;;;4.30;1.30;;;;;;;28.47;32.26;102045.00;4953496;28;20394;-28
2022/07/04 10:46:15;;;;;;;4.10;1.30;;;;;;;28.35;33.14;102039.66;4963561;28;20398;-28
2022/07/04 10:48:51;;;;;;;4.93;1.45;;;;;;;28.97;32.92;102032.31;4974882;28;20030;-28
2022/07/04 10:51:32;;;;;;;4.15;1.10;;;;;;;29.01;31.63;102038.94;4974636;28;20422;-28
2022/07/04 10:53:58;;;;;;;6.25;1.40;;;;;;;28.12;32.91;102029.94;4974790;28;20023;-29
2022/07/04 10:56:27;;;;;;;4.43;1.10;;;;;;;28.10;33.96;102039.59;4967897;28;21129;-29
2022/07/04 10:58:53;;;;;;;5.28;1.33;;;;;;;28.08;32.64;102034.31;4971287;28;20121;-28
2022/07/04 11:01:19;;;;;;;4.38;1.35;;;;;;;28.25;32.97;102036.88;4974355;28;20174;-29
2022/07/04 11:03:51;;;;;;;6.80;1.60;;;;;;;27.92;33.67;102043.69;4974860;28;20516;-29
2022/07/04 11:06:29;;;;;;;7.78;1.25;;;;;;;26.34;34.86;102038.47;4973746;28;20142;-29
2022/07/04 11:09:30;;;;;;;2.80;0.98;;;;;;;26.92;34.64;102028.56;4974022;28;20141;-29
2022/07/04 11:11:55;;;;;;;3.10;0.80;;;;;;;27.51;33.05;102035.13;4932722;29;20472;-28
2022/07/04 11:14:40;;;;;;;3.88;1.10;;;;;;;28.39;32.93;102031.66;4964895;28;20121;-29
2022/07/04 11:17:11;;;;;;;12.20;7.68;;;;;;;28.96;32.79;102027.84;4973617;28;20035;-29
2022/07/04 11:19:37;;;;;;;3.67;1.17;;;;;;;28.91;30.79;102024.25;4958978;28;20120;-28
2022/07/04 11:22:05;;;;;;;4.72;1.40;;;;;;;28.39;30.85;102020.59;4972909;28;20031;-27
2022/07/04 11:24:31;;;;;;;4.53;1.20;;;;;;;28.37;32.01;102029.16;4973951;28;20058;-28
2022/07/04 11:26:56;;;;;;;3.37;1.10;;;;;;;28.41;31.08;102029.44;4973613;28;20035;-29
2022/07/04 11:29:22;;;;;;;7.03;1.63;;;;;;;28.33;32.21;102039.13;4970840;28;20045;-30
2022/07/04 11:31:51;;;;;;;7.63;1.10;;;;;;;28.48;30.60;102035.56;4972593;28;20486;-28
2022/07/04 11:34:16;;;;;;;3.22;1.10;;;;;;;28.33;31.18;102029.97;4973399;28;20069;-28
2022/07/04 11:36:44;;;;;;;5.20;1.05;;;;;;;28.40;30.45;102022.25;4973708;28;20469;-28